BAW1858 HEAX-LGAV
Flight info
| Callsign | BAW1858 |
|---|---|
| Flight time | N/A |
| Altitude | 36000 |
| Route | NOZ1B NOZ L551 ANTAR UN133 KPC UN137 RIPLI UL995 VARIX VARIXQ |
| Aircraft | A320/M-SDE3FGHIKRWXY/S |
Departure
| Time | 2026-05-05 21:37 |
|---|---|
| Airport | Alexandria International Airport (HEAX) |
Arrival
| Time | N/A |
|---|---|
| Airport | Athens Eleftherios Venizelos International Airport (LGAV) |
| Time | Latitude | Longitude | Altitude | Speed | Heading |
|---|---|---|---|---|---|
| 2026-05-05 20:44 | 30.93037 | 29.69659 | 176 ft | 0 kts | 44° |
| 2026-05-05 21:22 | 30.93032 | 29.69654 | 175 ft | 3 kts | 44° |
| 2026-05-05 21:22 | 30.93020 | 29.69639 | 174 ft | 3 kts | 64° |
| 2026-05-05 21:22 | 30.93015 | 29.69619 | 176 ft | 3 kts | 101° |
| 2026-05-05 21:22 | 30.93021 | 29.69600 | 176 ft | 3 kts | 137° |
| 2026-05-05 21:23 | 30.93028 | 29.69593 | 176 ft | 0 kts | 146° |
| 2026-05-05 21:29 | 30.93018 | 29.69593 | 176 ft | 2 kts | 183° |
| 2026-05-05 21:29 | 30.92973 | 29.69590 | 175 ft | 11 kts | 179° |
| 2026-05-05 21:29 | 30.92897 | 29.69622 | 174 ft | 13 kts | 192° |
| 2026-05-05 21:29 | 30.92831 | 29.69548 | 174 ft | 14 kts | 233° |
| 2026-05-05 21:30 | 30.92768 | 29.69446 | 174 ft | 16 kts | 236° |
| 2026-05-05 21:30 | 30.92698 | 29.69331 | 174 ft | 18 kts | 233° |
| 2026-05-05 21:30 | 30.92619 | 29.69206 | 174 ft | 20 kts | 226° |
| 2026-05-05 21:30 | 30.92543 | 29.69089 | 174 ft | 12 kts | 232° |
| 2026-05-05 21:31 | 30.92477 | 29.69031 | 174 ft | 12 kts | 160° |
| 2026-05-05 21:31 | 30.92390 | 29.69082 | 172 ft | 15 kts | 153° |
| 2026-05-05 21:31 | 30.92292 | 29.69156 | 170 ft | 18 kts | 144° |
| 2026-05-05 21:31 | 30.92180 | 29.69248 | 168 ft | 21 kts | 144° |
| 2026-05-05 21:32 | 30.92054 | 29.69358 | 165 ft | 24 kts | 140° |
| 2026-05-05 21:32 | 30.91915 | 29.69491 | 162 ft | 27 kts | 142° |
| 2026-05-05 21:32 | 30.91763 | 29.69632 | 159 ft | 27 kts | 141° |
| 2026-05-05 21:32 | 30.91605 | 29.69764 | 156 ft | 25 kts | 143° |
| 2026-05-05 21:33 | 30.91459 | 29.69889 | 153 ft | 27 kts | 144° |
| 2026-05-05 21:33 | 30.91299 | 29.70027 | 149 ft | 30 kts | 142° |
| 2026-05-05 21:33 | 30.91130 | 29.70171 | 146 ft | 31 kts | 146° |
| 2026-05-05 21:33 | 30.90953 | 29.70334 | 142 ft | 33 kts | 139° |
| 2026-05-05 21:34 | 30.90831 | 29.70452 | 140 ft | 24 kts | 144° |
| 2026-05-05 21:34 | 30.90709 | 29.70531 | 137 ft | 18 kts | 180° |
| 2026-05-05 21:34 | 30.90664 | 29.70499 | 137 ft | 0 kts | 224° |
| 2026-05-05 21:35 | 30.90662 | 29.70497 | 137 ft | 1 kts | 224° |
| 2026-05-05 21:35 | 30.90646 | 29.70468 | 137 ft | 8 kts | 238° |
| 2026-05-05 21:35 | 30.90610 | 29.70400 | 136 ft | 11 kts | 239° |
| 2026-05-05 21:35 | 30.90629 | 29.70321 | 136 ft | 11 kts | 310° |
| 2026-05-05 21:36 | 30.90639 | 29.70308 | 137 ft | 0 kts | 316° |
| 2026-05-05 21:36 | 30.90683 | 29.70269 | 137 ft | 20 kts | 324° |
| 2026-05-05 21:36 | 30.90946 | 29.70042 | 143 ft | 77 kts | 323° |
| 2026-05-05 21:36 | 30.91519 | 29.69539 | 155 ft | 126 kts | 323° |
| 2026-05-05 21:37 | 30.92334 | 29.68841 | 184 ft | 162 kts | 324° |
| 2026-05-05 21:37 | 30.93242 | 29.68067 | 653 ft | 161 kts | 327° |
| 2026-05-05 21:37 | 30.94287 | 29.67583 | 1192 ft | 163 kts | 343° |
| 2026-05-05 21:37 | 30.95383 | 29.67180 | 1581 ft | 176 kts | 341° |
| 2026-05-05 21:38 | 30.96653 | 29.66824 | 1797 ft | 200 kts | 2° |
| 2026-05-05 21:38 | 30.97988 | 29.67500 | 2045 ft | 227 kts | 45° |
| 2026-05-05 21:38 | 30.98880 | 29.69135 | 2425 ft | 252 kts | 62° |
| 2026-05-05 21:38 | 30.99591 | 29.71025 | 3133 ft | 261 kts | 66° |
| 2026-05-05 21:39 | 31.00259 | 29.73014 | 3986 ft | 265 kts | 67° |
| 2026-05-05 21:39 | 31.00928 | 29.75035 | 4856 ft | 268 kts | 67° |
| 2026-05-05 21:39 | 31.01618 | 29.77079 | 5660 ft | 274 kts | 66° |
| 2026-05-05 21:39 | 31.02346 | 29.79159 | 5997 ft | 278 kts | 62° |
| 2026-05-05 21:40 | 31.03405 | 29.81028 | 6093 ft | 275 kts | 44° |
| 2026-05-05 21:40 | 31.04824 | 29.82453 | 6108 ft | 272 kts | 35° |
| 2026-05-05 21:40 | 31.06329 | 29.83808 | 6109 ft | 272 kts | 34° |
| 2026-05-05 21:40 | 31.07833 | 29.85159 | 6111 ft | 272 kts | 35° |
| 2026-05-05 21:41 | 31.09336 | 29.86514 | 6110 ft | 272 kts | 35° |
| 2026-05-05 21:41 | 31.10809 | 29.87850 | 6112 ft | 272 kts | 35° |
| 2026-05-05 21:41 | 31.12304 | 29.89213 | 6112 ft | 272 kts | 35° |
| 2026-05-05 21:41 | 31.13801 | 29.90577 | 6109 ft | 272 kts | 35° |
| 2026-05-05 21:42 | 31.15296 | 29.91940 | 6113 ft | 272 kts | 35° |
| 2026-05-05 21:42 | 31.16840 | 29.93209 | 6113 ft | 269 kts | 24° |
| 2026-05-05 21:42 | 31.18605 | 29.93856 | 6109 ft | 265 kts | 4° |
| 2026-05-05 21:42 | 31.20406 | 29.93772 | 6112 ft | 262 kts | 345° |
| 2026-05-05 21:43 | 31.22102 | 29.92972 | 6572 ft | 265 kts | 329° |
| 2026-05-05 21:43 | 31.23723 | 29.91937 | 7445 ft | 265 kts | 330° |
| 2026-05-05 21:43 | 31.25364 | 29.90919 | 8236 ft | 268 kts | 330° |
| 2026-05-05 21:43 | 31.27033 | 29.89891 | 9022 ft | 272 kts | 330° |
| 2026-05-05 21:44 | 31.28700 | 29.88861 | 9780 ft | 275 kts | 330° |
| 2026-05-05 21:44 | 31.30409 | 29.87801 | 10422 ft | 283 kts | 330° |
| 2026-05-05 21:44 | 31.32219 | 29.86672 | 10600 ft | 306 kts | 330° |
| 2026-05-05 21:44 | 31.34162 | 29.85455 | 10782 ft | 326 kts | 330° |
| 2026-05-05 21:45 | 31.36170 | 29.84200 | 11292 ft | 333 kts | 330° |
| 2026-05-05 21:45 | 31.38231 | 29.82912 | 11930 ft | 337 kts | 330° |
| 2026-05-05 21:45 | 31.40310 | 29.81612 | 12578 ft | 340 kts | 330° |
| 2026-05-05 21:45 | 31.42408 | 29.80300 | 13227 ft | 344 kts | 330° |
| 2026-05-05 21:46 | 31.44531 | 29.78971 | 13852 ft | 347 kts | 330° |
| 2026-05-05 21:46 | 31.46672 | 29.77631 | 14429 ft | 350 kts | 330° |
| 2026-05-05 21:46 | 31.48827 | 29.76278 | 15029 ft | 352 kts | 330° |
| 2026-05-05 21:46 | 31.50958 | 29.74937 | 15615 ft | 353 kts | 329° |
| 2026-05-05 21:47 | 31.53132 | 29.73570 | 16212 ft | 355 kts | 329° |
| 2026-05-05 21:47 | 31.55310 | 29.72199 | 16810 ft | 356 kts | 329° |
| 2026-05-05 21:47 | 31.57504 | 29.70819 | 17417 ft | 358 kts | 329° |
| 2026-05-05 21:47 | 31.59713 | 29.69429 | 18040 ft | 359 kts | 329° |
| 2026-05-05 21:48 | 31.61923 | 29.68035 | 18634 ft | 361 kts | 328° |
| 2026-05-05 21:48 | 31.64122 | 29.66647 | 19167 ft | 363 kts | 328° |
| 2026-05-05 21:48 | 31.66366 | 29.65232 | 19715 ft | 366 kts | 328° |
| 2026-05-05 21:48 | 31.68620 | 29.63810 | 20272 ft | 368 kts | 328° |
| 2026-05-05 21:49 | 31.70859 | 29.62396 | 20813 ft | 370 kts | 328° |
| 2026-05-05 21:49 | 31.73136 | 29.60960 | 21342 ft | 372 kts | 328° |
| 2026-05-05 21:49 | 31.75429 | 29.59513 | 21855 ft | 374 kts | 328° |
| 2026-05-05 21:49 | 31.77734 | 29.58055 | 22337 ft | 377 kts | 328° |
| 2026-05-05 21:50 | 31.80048 | 29.56591 | 22821 ft | 379 kts | 328° |
| 2026-05-05 21:50 | 31.82384 | 29.55113 | 23293 ft | 381 kts | 327° |
| 2026-05-05 21:50 | 31.84704 | 29.53642 | 23739 ft | 383 kts | 327° |
| 2026-05-05 21:50 | 31.87060 | 29.52147 | 24119 ft | 385 kts | 328° |
| 2026-05-05 21:51 | 31.89427 | 29.50647 | 24496 ft | 387 kts | 328° |
| 2026-05-05 21:51 | 31.91807 | 29.49138 | 24865 ft | 389 kts | 328° |
| 2026-05-05 21:51 | 31.94197 | 29.47624 | 25219 ft | 391 kts | 328° |
| 2026-05-05 21:51 | 31.96600 | 29.46099 | 25588 ft | 392 kts | 328° |
| 2026-05-05 21:52 | 32.01402 | 29.43045 | 26289 ft | 396 kts | 328° |
| 2026-05-05 21:52 | 32.03840 | 29.41494 | 26640 ft | 397 kts | 328° |
| 2026-05-05 21:52 | 32.06279 | 29.39942 | 26997 ft | 399 kts | 328° |
| 2026-05-05 21:53 | 32.08695 | 29.38401 | 27337 ft | 401 kts | 328° |
| 2026-05-05 21:53 | 32.11157 | 29.36829 | 27685 ft | 402 kts | 328° |
| 2026-05-05 21:53 | 32.13629 | 29.35250 | 28028 ft | 404 kts | 328° |
| 2026-05-05 21:53 | 32.16110 | 29.33662 | 28366 ft | 406 kts | 328° |
| 2026-05-05 21:54 | 32.18610 | 29.32062 | 28698 ft | 408 kts | 328° |
| 2026-05-05 21:54 | 32.21071 | 29.30491 | 29124 ft | 407 kts | 328° |
| 2026-05-05 21:54 | 32.23557 | 29.28904 | 29616 ft | 405 kts | 328° |
| 2026-05-05 21:54 | 32.26035 | 29.27320 | 30122 ft | 403 kts | 328° |
| 2026-05-05 21:55 | 32.28498 | 29.25744 | 30545 ft | 401 kts | 328° |
| 2026-05-05 21:55 | 32.30953 | 29.24171 | 30956 ft | 400 kts | 328° |
| 2026-05-05 21:55 | 32.33361 | 29.22626 | 31354 ft | 398 kts | 328° |
| 2026-05-05 21:55 | 32.35802 | 29.21058 | 31760 ft | 397 kts | 328° |
| 2026-05-05 21:56 | 32.38224 | 29.19502 | 32171 ft | 396 kts | 328° |
| 2026-05-05 21:56 | 32.40621 | 29.17962 | 32582 ft | 394 kts | 328° |
| 2026-05-05 21:56 | 32.43028 | 29.16413 | 32979 ft | 393 kts | 328° |
| 2026-05-05 21:56 | 32.45426 | 29.14867 | 33392 ft | 392 kts | 328° |
| 2026-05-05 21:57 | 32.47824 | 29.13316 | 33795 ft | 391 kts | 328° |
| 2026-05-05 21:57 | 32.50208 | 29.11775 | 34187 ft | 390 kts | 327° |
| 2026-05-05 21:57 | 32.52594 | 29.10236 | 34491 ft | 390 kts | 327° |
| 2026-05-05 21:57 | 32.54947 | 29.08720 | 34750 ft | 390 kts | 327° |
| 2026-05-05 21:58 | 32.57334 | 29.07178 | 34994 ft | 391 kts | 327° |
| 2026-05-05 21:58 | 32.59726 | 29.05632 | 35237 ft | 392 kts | 327° |
| 2026-05-05 21:58 | 32.62128 | 29.04078 | 35482 ft | 392 kts | 327° |
| 2026-05-05 21:58 | 32.64534 | 29.02521 | 35712 ft | 393 kts | 327° |
| 2026-05-05 21:59 | 32.66939 | 29.00966 | 35940 ft | 394 kts | 327° |
| 2026-05-05 21:59 | 32.69322 | 28.99423 | 36079 ft | 395 kts | 327° |
| 2026-05-05 21:59 | 32.71756 | 28.97844 | 36107 ft | 401 kts | 327° |
| 2026-05-05 22:00 | 32.76706 | 28.94627 | 36105 ft | 407 kts | 327° |
| 2026-05-05 22:00 | 32.81698 | 28.91393 | 36105 ft | 408 kts | 327° |
| 2026-05-05 22:01 | 32.86654 | 28.88170 | 36099 ft | 408 kts | 327° |
| 2026-05-05 22:01 | 32.91639 | 28.84923 | 36095 ft | 408 kts | 327° |
| 2026-05-05 22:02 | 32.96582 | 28.81704 | 36104 ft | 408 kts | 327° |
| 2026-05-05 22:02 | 33.01565 | 28.78456 | 36119 ft | 408 kts | 327° |
| 2026-05-05 22:03 | 33.06551 | 28.75197 | 36127 ft | 408 kts | 327° |
| 2026-05-05 22:03 | 33.11525 | 28.71932 | 36123 ft | 408 kts | 327° |
| 2026-05-05 22:04 | 33.16461 | 28.68691 | 36124 ft | 407 kts | 327° |
| 2026-05-05 22:04 | 33.21433 | 28.65433 | 36124 ft | 407 kts | 327° |
| 2026-05-05 22:05 | 33.26393 | 28.62177 | 36122 ft | 406 kts | 327° |
| 2026-05-05 22:05 | 33.31355 | 28.58908 | 36121 ft | 406 kts | 327° |
| 2026-05-05 22:06 | 33.36307 | 28.55643 | 36119 ft | 406 kts | 327° |
| 2026-05-05 22:06 | 33.41233 | 28.52400 | 36120 ft | 406 kts | 327° |
| 2026-05-05 22:07 | 33.46185 | 28.49126 | 36119 ft | 406 kts | 327° |
| 2026-05-05 22:07 | 33.51138 | 28.45856 | 36120 ft | 405 kts | 327° |
| 2026-05-05 22:08 | 33.56053 | 28.42606 | 36118 ft | 405 kts | 327° |
| 2026-05-05 22:08 | 33.60981 | 28.39338 | 36119 ft | 404 kts | 327° |
| 2026-05-05 22:09 | 33.65902 | 28.36066 | 36115 ft | 404 kts | 327° |
| 2026-05-05 22:09 | 33.70789 | 28.32807 | 36120 ft | 404 kts | 327° |
| 2026-05-05 22:10 | 33.75712 | 28.29534 | 36113 ft | 404 kts | 327° |